sensor_id;sensor_type;location;lat;lon;timestamp;P1;durP1;ratioP1;P2;durP2;ratioP2
64986;SDS011;51532;52.108;9.360;2022-07-29T00:01:46;4.95;;;1.33;;
64986;SDS011;51532;52.108;9.360;2022-07-29T00:04:33;3.30;;;1.40;;
64986;SDS011;51532;52.108;9.360;2022-07-29T00:07:20;4.40;;;1.70;;
64986;SDS011;51532;52.108;9.360;2022-07-29T00:10:05;3.05;;;1.67;;
64986;SDS011;51532;52.108;9.360;2022-07-29T00:12:51;2.42;;;1.40;;
64986;SDS011;51532;52.108;9.360;2022-07-29T00:15:37;4.43;;;1.38;;
64986;SDS011;51532;52.108;9.360;2022-07-29T00:18:22;2.80;;;1.45;;
64986;SDS011;51532;52.108;9.360;2022-07-29T00:21:08;1.77;;;1.50;;
64986;SDS011;51532;52.108;9.360;2022-07-29T00:23:53;2.97;;;1.40;;
64986;SDS011;51532;52.108;9.360;2022-07-29T00:26:39;2.20;;;1.50;;
64986;SDS011;51532;52.108;9.360;2022-07-29T00:29:24;5.22;;;1.70;;
64986;SDS011;51532;52.108;9.360;2022-07-29T00:32:19;2.47;;;1.42;;
64986;SDS011;51532;52.108;9.360;2022-07-29T00:35:04;5.18;;;1.83;;
64986;SDS011;51532;52.108;9.360;2022-07-29T00:38:09;3.58;;;1.60;;
64986;SDS011;51532;52.108;9.360;2022-07-29T00:41:02;4.22;;;1.52;;
64986;SDS011;51532;52.108;9.360;2022-07-29T00:43:47;1.58;;;1.48;;
64986;SDS011;51532;52.108;9.360;2022-07-29T00:46:33;4.85;;;1.80;;
64986;SDS011;51532;52.108;9.360;2022-07-29T00:49:18;3.42;;;1.60;;
64986;SDS011;51532;52.108;9.360;2022-07-29T00:52:04;4.18;;;1.67;;
64986;SDS011;51532;52.108;9.360;2022-07-29T00:54:50;4.13;;;1.50;;
64986;SDS011;51532;52.108;9.360;2022-07-29T00:57:36;3.50;;;1.60;;
64986;SDS011;51532;52.108;9.360;2022-07-29T01:00:23;4.90;;;1.70;;
64986;SDS011;51532;52.108;9.360;2022-07-29T01:03:11;4.80;;;1.48;;
64986;SDS011;51532;52.108;9.360;2022-07-29T01:05:56;3.08;;;1.40;;
64986;SDS011;51532;52.108;9.360;2022-07-29T01:08:42;3.15;;;1.50;;
64986;SDS011;51532;52.108;9.360;2022-07-29T01:11:28;5.78;;;1.95;;
64986;SDS011;51532;52.108;9.360;2022-07-29T01:14:14;5.07;;;1.70;;
64986;SDS011;51532;52.108;9.360;2022-07-29T01:17:03;3.83;;;1.52;;
64986;SDS011;51532;52.108;9.360;2022-07-29T01:22:50;1.40;;;1.30;;
64986;SDS011;51532;52.108;9.360;2022-07-29T01:29:05;1.52;;;1.40;;
64986;SDS011;51532;52.108;9.360;2022-07-29T01:31:56;4.13;;;1.10;;
64986;SDS011;51532;52.108;9.360;2022-07-29T01:34:49;4.93;;;1.55;;
64986;SDS011;51532;52.108;9.360;2022-07-29T01:37:43;4.22;;;1.55;;
64986;SDS011;51532;52.108;9.360;2022-07-29T01:40:38;4.35;;;2.47;;
64986;SDS011;51532;52.108;9.360;2022-07-29T01:43:35;2.95;;;1.50;;
64986;SDS011;51532;52.108;9.360;2022-07-29T01:46:27;4.45;;;1.60;;
64986;SDS011;51532;52.108;9.360;2022-07-29T01:49:24;2.38;;;1.73;;
64986;SDS011;51532;52.108;9.360;2022-07-29T01:52:15;3.70;;;1.50;;
64986;SDS011;51532;52.108;9.360;2022-07-29T01:55:07;6.95;;;1.50;;
64986;SDS011;51532;52.108;9.360;2022-07-29T01:57:58;1.95;;;1.48;;
64986;SDS011;51532;52.108;9.360;2022-07-29T02:00:46;2.70;;;1.58;;
64986;SDS011;51532;52.108;9.360;2022-07-29T02:03:32;4.18;;;1.70;;
64986;SDS011;51532;52.108;9.360;2022-07-29T02:06:21;4.57;;;1.70;;
64986;SDS011;51532;52.108;9.360;2022-07-29T02:09:07;3.03;;;1.40;;
64986;SDS011;51532;52.108;9.360;2022-07-29T02:11:54;2.08;;;1.30;;
64986;SDS011;51532;52.108;9.360;2022-07-29T02:14:43;3.17;;;1.48;;
64986;SDS011;51532;52.108;9.360;2022-07-29T02:17:37;3.05;;;1.42;;
64986;SDS011;51532;52.108;9.360;2022-07-29T02:20:28;2.58;;;1.35;;
64986;SDS011;51532;52.108;9.360;2022-07-29T02:23:16;2.35;;;1.50;;
64986;SDS011;51532;52.108;9.360;2022-07-29T02:26:04;2.15;;;1.58;;
64986;SDS011;51532;52.108;9.360;2022-07-29T02:28:52;4.82;;;1.60;;
64986;SDS011;51532;52.108;9.360;2022-07-29T02:31:40;5.35;;;1.50;;
64986;SDS011;51532;52.108;9.360;2022-07-29T02:34:28;2.42;;;1.42;;
64986;SDS011;51532;52.108;9.360;2022-07-29T02:37:15;2.22;;;1.50;;
64986;SDS011;51532;52.108;9.360;2022-07-29T02:40:02;5.72;;;1.63;;
64986;SDS011;51532;52.108;9.360;2022-07-29T02:42:48;3.13;;;1.40;;
64986;SDS011;51532;52.108;9.360;2022-07-29T02:45:34;5.07;;;2.10;;
64986;SDS011;51532;52.108;9.360;2022-07-29T02:48:22;6.13;;;1.60;;
64986;SDS011;51532;52.108;9.360;2022-07-29T02:51:23;4.97;;;2.05;;
64986;SDS011;51532;52.108;9.360;2022-07-29T02:54:42;3.88;;;1.48;;
64986;SDS011;51532;52.108;9.360;2022-07-29T02:57:42;3.30;;;1.67;;
64986;SDS011;51532;52.108;9.360;2022-07-29T03:00:39;4.18;;;1.73;;
64986;SDS011;51532;52.108;9.360;2022-07-29T03:03:27;3.65;;;1.73;;
64986;SDS011;51532;52.108;9.360;2022-07-29T03:06:17;4.45;;;1.60;;
64986;SDS011;51532;52.108;9.360;2022-07-29T03:09:22;3.83;;;1.55;;
64986;SDS011;51532;52.108;9.360;2022-07-29T03:12:08;2.08;;;1.50;;
64986;SDS011;51532;52.108;9.360;2022-07-29T03:14:55;3.50;;;1.40;;
64986;SDS011;51532;52.108;9.360;2022-07-29T03:17:40;3.20;;;1.55;;
64986;SDS011;51532;52.108;9.360;2022-07-29T03:20:27;4.43;;;2.15;;
64986;SDS011;51532;52.108;9.360;2022-07-29T03:23:14;2.17;;;1.40;;
64986;SDS011;51532;52.108;9.360;2022-07-29T03:26:05;5.10;;;1.90;;
64986;SDS011;51532;52.108;9.360;2022-07-29T03:28:50;3.78;;;1.73;;
64986;SDS011;51532;52.108;9.360;2022-07-29T03:31:35;5.82;;;1.52;;
64986;SDS011;51532;52.108;9.360;2022-07-29T03:34:21;2.35;;;1.80;;
64986;SDS011;51532;52.108;9.360;2022-07-29T03:37:07;3.58;;;1.73;;
64986;SDS011;51532;52.108;9.360;2022-07-29T03:39:52;3.97;;;1.70;;
64986;SDS011;51532;52.108;9.360;2022-07-29T03:42:41;2.58;;;1.60;;
64986;SDS011;51532;52.108;9.360;2022-07-29T03:45:28;3.13;;;1.50;;
64986;SDS011;51532;52.108;9.360;2022-07-29T03:48:16;4.93;;;1.33;;
64986;SDS011;51532;52.108;9.360;2022-07-29T03:51:04;5.15;;;1.65;;
64986;SDS011;51532;52.108;9.360;2022-07-29T03:53:51;3.30;;;1.40;;
64986;SDS011;51532;52.108;9.360;2022-07-29T03:56:38;2.10;;;1.70;;
64986;SDS011;51532;52.108;9.360;2022-07-29T03:59:27;4.80;;;1.75;;
64986;SDS011;51532;52.108;9.360;2022-07-29T04:02:15;3.33;;;1.95;;
64986;SDS011;51532;52.108;9.360;2022-07-29T04:05:11;3.08;;;1.40;;
64986;SDS011;51532;52.108;9.360;2022-07-29T04:07:57;2.78;;;1.70;;
64986;SDS011;51532;52.108;9.360;2022-07-29T04:10:42;4.15;;;1.48;;
64986;SDS011;51532;52.108;9.360;2022-07-29T04:13:28;3.10;;;1.60;;
64986;SDS011;51532;52.108;9.360;2022-07-29T04:16:13;3.22;;;1.80;;
64986;SDS011;51532;52.108;9.360;2022-07-29T04:18:59;3.13;;;1.52;;
64986;SDS011;51532;52.108;9.360;2022-07-29T04:21:44;2.42;;;1.52;;
64986;SDS011;51532;52.108;9.360;2022-07-29T04:24:30;3.05;;;1.80;;
64986;SDS011;51532;52.108;9.360;2022-07-29T04:27:15;2.95;;;1.90;;
64986;SDS011;51532;52.108;9.360;2022-07-29T04:30:01;4.47;;;1.80;;
64986;SDS011;51532;52.108;9.360;2022-07-29T04:32:46;2.75;;;1.45;;
64986;SDS011;51532;52.108;9.360;2022-07-29T04:35:36;5.18;;;1.73;;
64986;SDS011;51532;52.108;9.360;2022-07-29T04:38:31;11.27;;;1.80;;
64986;SDS011;51532;52.108;9.360;2022-07-29T04:41:17;4.28;;;1.80;;
64986;SDS011;51532;52.108;9.360;2022-07-29T04:44:04;2.78;;;1.52;;
64986;SDS011;51532;52.108;9.360;2022-07-29T04:46:51;3.70;;;1.60;;
64986;SDS011;51532;52.108;9.360;2022-07-29T04:49:39;3.83;;;1.67;;
64986;SDS011;51532;52.108;9.360;2022-07-29T04:52:25;3.40;;;1.50;;
64986;SDS011;51532;52.108;9.360;2022-07-29T04:55:10;4.53;;;1.45;;
64986;SDS011;51532;52.108;9.360;2022-07-29T04:57:55;4.30;;;1.70;;
64986;SDS011;51532;52.108;9.360;2022-07-29T05:00:42;3.20;;;2.05;;
64986;SDS011;51532;52.108;9.360;2022-07-29T05:03:27;6.05;;;1.85;;
64986;SDS011;51532;52.108;9.360;2022-07-29T05:06:13;5.30;;;1.80;;
64986;SDS011;51532;52.108;9.360;2022-07-29T05:08:58;6.03;;;1.85;;
64986;SDS011;51532;52.108;9.360;2022-07-29T05:11:43;2.67;;;1.83;;
64986;SDS011;51532;52.108;9.360;2022-07-29T05:14:29;5.95;;;1.67;;
64986;SDS011;51532;52.108;9.360;2022-07-29T05:17:15;5.43;;;1.85;;
64986;SDS011;51532;52.108;9.360;2022-07-29T05:20:00;3.95;;;1.63;;
64986;SDS011;51532;52.108;9.360;2022-07-29T05:22:46;2.85;;;1.70;;
64986;SDS011;51532;52.108;9.360;2022-07-29T05:25:31;4.45;;;1.50;;
64986;SDS011;51532;52.108;9.360;2022-07-29T05:28:28;3.47;;;1.80;;
64986;SDS011;51532;52.108;9.360;2022-07-29T05:31:13;2.15;;;1.60;;
64986;SDS011;51532;52.108;9.360;2022-07-29T05:34:00;3.63;;;1.73;;
64986;SDS011;51532;52.108;9.360;2022-07-29T05:36:45;3.88;;;1.75;;
64986;SDS011;51532;52.108;9.360;2022-07-29T05:39:31;6.10;;;1.60;;
64986;SDS011;51532;52.108;9.360;2022-07-29T05:42:33;4.18;;;1.58;;
64986;SDS011;51532;52.108;9.360;2022-07-29T05:45:18;5.32;;;1.50;;
64986;SDS011;51532;52.108;9.360;2022-07-29T05:48:04;4.25;;;2.03;;
64986;SDS011;51532;52.108;9.360;2022-07-29T05:50:49;3.28;;;1.67;;
64986;SDS011;51532;52.108;9.360;2022-07-29T05:53:35;2.85;;;1.58;;
64986;SDS011;51532;52.108;9.360;2022-07-29T05:56:20;1.88;;;1.52;;
64986;SDS011;51532;52.108;9.360;2022-07-29T05:59:06;3.85;;;1.98;;
64986;SDS011;51532;52.108;9.360;2022-07-29T06:02:02;2.63;;;1.80;;
64986;SDS011;51532;52.108;9.360;2022-07-29T06:04:50;2.88;;;1.85;;
64986;SDS011;51532;52.108;9.360;2022-07-29T06:07:35;4.00;;;1.90;;
64986;SDS011;51532;52.108;9.360;2022-07-29T06:10:22;4.00;;;1.83;;
64986;SDS011;51532;52.108;9.360;2022-07-29T06:13:10;6.55;;;2.03;;
64986;SDS011;51532;52.108;9.360;2022-07-29T06:15:56;5.03;;;1.70;;
64986;SDS011;51532;52.108;9.360;2022-07-29T06:18:43;4.22;;;2.03;;
64986;SDS011;51532;52.108;9.360;2022-07-29T06:21:28;2.50;;;1.60;;
64986;SDS011;51532;52.108;9.360;2022-07-29T06:24:14;2.92;;;1.75;;
64986;SDS011;51532;52.108;9.360;2022-07-29T06:27:00;2.92;;;1.70;;
64986;SDS011;51532;52.108;9.360;2022-07-29T06:29:46;5.35;;;1.70;;
64986;SDS011;51532;52.108;9.360;2022-07-29T06:32:31;4.32;;;1.90;;
64986;SDS011;51532;52.108;9.360;2022-07-29T06:35:17;7.80;;;1.98;;
64986;SDS011;51532;52.108;9.360;2022-07-29T06:38:23;5.72;;;1.70;;
64986;SDS011;51532;52.108;9.360;2022-07-29T06:41:17;4.38;;;1.95;;
64986;SDS011;51532;52.108;9.360;2022-07-29T06:44:03;3.60;;;1.80;;
64986;SDS011;51532;52.108;9.360;2022-07-29T06:46:49;4.63;;;1.73;;
64986;SDS011;51532;52.108;9.360;2022-07-29T06:49:36;4.32;;;1.73;;
64986;SDS011;51532;52.108;9.360;2022-07-29T06:52:22;5.60;;;1.60;;
64986;SDS011;51532;52.108;9.360;2022-07-29T06:55:07;3.47;;;1.75;;
64986;SDS011;51532;52.108;9.360;2022-07-29T06:57:53;4.18;;;1.80;;
64986;SDS011;51532;52.108;9.360;2022-07-29T07:00:38;4.20;;;1.83;;
64986;SDS011;51532;52.108;9.360;2022-07-29T07:03:24;5.20;;;1.70;;
64986;SDS011;51532;52.108;9.360;2022-07-29T07:06:09;6.40;;;2.00;;
64986;SDS011;51532;52.108;9.360;2022-07-29T07:08:59;7.57;;;2.05;;
64986;SDS011;51532;52.108;9.360;2022-07-29T07:11:44;6.03;;;1.95;;
64986;SDS011;51532;52.108;9.360;2022-07-29T07:14:33;4.03;;;1.73;;
64986;SDS011;51532;52.108;9.360;2022-07-29T07:17:19;3.63;;;1.73;;
64986;SDS011;51532;52.108;9.360;2022-07-29T07:20:05;2.75;;;1.77;;
64986;SDS011;51532;52.108;9.360;2022-07-29T07:22:52;4.07;;;2.17;;
64986;SDS011;51532;52.108;9.360;2022-07-29T07:25:38;2.70;;;1.60;;
64986;SDS011;51532;52.108;9.360;2022-07-29T07:28:23;2.92;;;1.77;;
64986;SDS011;51532;52.108;9.360;2022-07-29T07:31:09;3.38;;;1.58;;
64986;SDS011;51532;52.108;9.360;2022-07-29T07:33:55;3.45;;;1.70;;
64986;SDS011;51532;52.108;9.360;2022-07-29T07:36:40;3.08;;;1.83;;
64986;SDS011;51532;52.108;9.360;2022-07-29T07:39:26;5.85;;;1.80;;
64986;SDS011;51532;52.108;9.360;2022-07-29T07:42:11;4.90;;;1.92;;
64986;SDS011;51532;52.108;9.360;2022-07-29T07:44:58;4.82;;;1.88;;
64986;SDS011;51532;52.108;9.360;2022-07-29T07:47:57;2.65;;;1.48;;
64986;SDS011;51532;52.108;9.360;2022-07-29T07:50:43;3.20;;;1.58;;
64986;SDS011;51532;52.108;9.360;2022-07-29T07:53:29;6.22;;;2.05;;
64986;SDS011;51532;52.108;9.360;2022-07-29T07:56:16;3.92;;;1.80;;
64986;SDS011;51532;52.108;9.360;2022-07-29T07:59:01;3.47;;;1.95;;
64986;SDS011;51532;52.108;9.360;2022-07-29T08:01:47;3.25;;;1.88;;
64986;SDS011;51532;52.108;9.360;2022-07-29T08:04:40;4.82;;;1.90;;
64986;SDS011;51532;52.108;9.360;2022-07-29T08:07:25;4.18;;;1.80;;
64986;SDS011;51532;52.108;9.360;2022-07-29T08:10:11;2.35;;;1.73;;
64986;SDS011;51532;52.108;9.360;2022-07-29T08:12:57;2.67;;;1.52;;
64986;SDS011;51532;52.108;9.360;2022-07-29T08:15:42;5.22;;;2.00;;
64986;SDS011;51532;52.108;9.360;2022-07-29T08:18:30;2.78;;;1.80;;
64986;SDS011;51532;52.108;9.360;2022-07-29T08:21:16;4.05;;;1.95;;
64986;SDS011;51532;52.108;9.360;2022-07-29T08:24:02;7.70;;;2.08;;
64986;SDS011;51532;52.108;9.360;2022-07-29T08:27:06;4.93;;;1.92;;
64986;SDS011;51532;52.108;9.360;2022-07-29T08:30:12;3.78;;;1.90;;
64986;SDS011;51532;52.108;9.360;2022-07-29T08:32:57;6.07;;;4.20;;
64986;SDS011;51532;52.108;9.360;2022-07-29T08:35:44;4.70;;;2.47;;
64986;SDS011;51532;52.108;9.360;2022-07-29T08:38:30;3.25;;;1.70;;
64986;SDS011;51532;52.108;9.360;2022-07-29T08:41:15;5.22;;;2.28;;
64986;SDS011;51532;52.108;9.360;2022-07-29T08:44:03;2.95;;;1.80;;
64986;SDS011;51532;52.108;9.360;2022-07-29T08:46:50;5.82;;;2.00;;
64986;SDS011;51532;52.108;9.360;2022-07-29T08:49:35;3.83;;;1.80;;
64986;SDS011;51532;52.108;9.360;2022-07-29T08:52:23;4.70;;;2.08;;
64986;SDS011;51532;52.108;9.360;2022-07-29T08:55:10;5.22;;;1.85;;
64986;SDS011;51532;52.108;9.360;2022-07-29T08:57:56;8.05;;;2.20;;
64986;SDS011;51532;52.108;9.360;2022-07-29T09:00:44;4.05;;;1.60;;
64986;SDS011;51532;52.108;9.360;2022-07-29T09:03:34;4.28;;;1.65;;
64986;SDS011;51532;52.108;9.360;2022-07-29T09:06:22;4.40;;;1.83;;
64986;SDS011;51532;52.108;9.360;2022-07-29T09:09:10;3.65;;;1.70;;
64986;SDS011;51532;52.108;9.360;2022-07-29T09:11:56;3.58;;;1.75;;
64986;SDS011;51532;52.108;9.360;2022-07-29T09:14:44;11.95;;;2.03;;
64986;SDS011;51532;52.108;9.360;2022-07-29T09:17:41;4.00;;;2.10;;
64986;SDS011;51532;52.108;9.360;2022-07-29T09:20:26;4.25;;;2.00;;
64986;SDS011;51532;52.108;9.360;2022-07-29T09:23:32;4.97;;;2.78;;
64986;SDS011;51532;52.108;9.360;2022-07-29T09:26:17;7.45;;;3.10;;
64986;SDS011;51532;52.108;9.360;2022-07-29T09:29:16;11.18;;;3.03;;
64986;SDS011;51532;52.108;9.360;2022-07-29T09:32:05;5.97;;;2.15;;
64986;SDS011;51532;52.108;9.360;2022-07-29T09:35:13;8.25;;;2.70;;
64986;SDS011;51532;52.108;9.360;2022-07-29T09:38:09;4.10;;;2.10;;
64986;SDS011;51532;52.108;9.360;2022-07-29T09:40:56;7.00;;;2.47;;
64986;SDS011;51532;52.108;9.360;2022-07-29T09:43:56;5.10;;;2.10;;
64986;SDS011;51532;52.108;9.360;2022-07-29T09:47:02;5.45;;;2.47;;
64986;SDS011;51532;52.108;9.360;2022-07-29T09:49:56;4.45;;;2.40;;
64986;SDS011;51532;52.108;9.360;2022-07-29T09:52:50;5.65;;;2.10;;
64986;SDS011;51532;52.108;9.360;2022-07-29T09:55:46;5.10;;;2.17;;
64986;SDS011;51532;52.108;9.360;2022-07-29T09:58:35;6.20;;;2.08;;
64986;SDS011;51532;52.108;9.360;2022-07-29T10:01:30;6.85;;;2.08;;
64986;SDS011;51532;52.108;9.360;2022-07-29T10:04:15;3.83;;;2.30;;
64986;SDS011;51532;52.108;9.360;2022-07-29T10:07:01;5.53;;;2.53;;
64986;SDS011;51532;52.108;9.360;2022-07-29T10:09:52;5.63;;;2.20;;
64986;SDS011;51532;52.108;9.360;2022-07-29T10:15:39;5.45;;;2.20;;
64986;SDS011;51532;52.108;9.360;2022-07-29T10:18:28;3.30;;;2.00;;
64986;SDS011;51532;52.108;9.360;2022-07-29T10:21:14;4.90;;;2.13;;
64986;SDS011;51532;52.108;9.360;2022-07-29T10:24:19;5.72;;;2.30;;
64986;SDS011;51532;52.108;9.360;2022-07-29T10:27:06;5.78;;;2.17;;
64986;SDS011;51532;52.108;9.360;2022-07-29T10:29:53;4.57;;;2.08;;
64986;SDS011;51532;52.108;9.360;2022-07-29T10:32:56;4.40;;;2.20;;
64986;SDS011;51532;52.108;9.360;2022-07-29T10:45:18;5.65;;;2.10;;
64986;SDS011;51532;52.108;9.360;2022-07-29T10:48:04;5.65;;;2.20;;
64986;SDS011;51532;52.108;9.360;2022-07-29T10:51:01;6.22;;;2.33;;
64986;SDS011;51532;52.108;9.360;2022-07-29T10:53:51;7.80;;;2.28;;
64986;SDS011;51532;52.108;9.360;2022-07-29T10:56:37;6.82;;;2.50;;
64986;SDS011;51532;52.108;9.360;2022-07-29T10:59:27;5.47;;;2.00;;
64986;SDS011;51532;52.108;9.360;2022-07-29T11:05:27;6.00;;;2.40;;
64986;SDS011;51532;52.108;9.360;2022-07-29T11:08:24;5.65;;;2.60;;
64986;SDS011;51532;52.108;9.360;2022-07-29T11:18:02;6.15;;;2.10;;
64986;SDS011;51532;52.108;9.360;2022-07-29T11:20:51;4.75;;;2.28;;
64986;SDS011;51532;52.108;9.360;2022-07-29T11:23:40;7.18;;;2.80;;
64986;SDS011;51532;52.108;9.360;2022-07-29T11:26:29;4.07;;;2.88;;
64986;SDS011;51532;52.108;9.360;2022-07-29T11:29:20;4.68;;;2.30;;
64986;SDS011;51532;52.108;9.360;2022-07-29T11:32:08;5.57;;;2.28;;
64986;SDS011;51532;52.108;9.360;2022-07-29T11:35:13;5.03;;;2.88;;
64986;SDS011;51532;52.108;9.360;2022-07-29T11:41:23;5.97;;;2.53;;
64986;SDS011;51532;52.108;9.360;2022-07-29T11:44:11;6.70;;;2.65;;
64986;SDS011;51532;52.108;9.360;2022-07-29T11:47:01;5.50;;;2.72;;
64986;SDS011;51532;52.108;9.360;2022-07-29T11:49:50;6.75;;;2.92;;
64986;SDS011;51532;52.108;9.360;2022-07-29T11:52:38;6.88;;;2.40;;
64986;SDS011;51532;52.108;9.360;2022-07-29T11:55:33;4.22;;;2.33;;
64986;SDS011;51532;52.108;9.360;2022-07-29T11:58:36;6.82;;;3.03;;
64986;SDS011;51532;52.108;9.360;2022-07-29T12:01:22;7.80;;;2.88;;
64986;SDS011;51532;52.108;9.360;2022-07-29T12:04:12;5.28;;;2.42;;
64986;SDS011;51532;52.108;9.360;2022-07-29T12:06:57;8.10;;;2.88;;
64986;SDS011;51532;52.108;9.360;2022-07-29T12:09:50;7.75;;;3.00;;
64986;SDS011;51532;52.108;9.360;2022-07-29T12:12:40;6.03;;;2.50;;
64986;SDS011;51532;52.108;9.360;2022-07-29T12:15:26;8.98;;;3.15;;
64986;SDS011;51532;52.108;9.360;2022-07-29T12:18:30;7.00;;;2.72;;
64986;SDS011;51532;52.108;9.360;2022-07-29T12:21:16;8.10;;;3.00;;
64986;SDS011;51532;52.108;9.360;2022-07-29T12:24:01;7.22;;;2.80;;
64986;SDS011;51532;52.108;9.360;2022-07-29T12:26:54;8.77;;;3.35;;
64986;SDS011;51532;52.108;9.360;2022-07-29T12:29:41;8.27;;;3.20;;
64986;SDS011;51532;52.108;9.360;2022-07-29T12:32:34;4.13;;;2.50;;
64986;SDS011;51532;52.108;9.360;2022-07-29T12:35:20;5.47;;;3.10;;
64986;SDS011;51532;52.108;9.360;2022-07-29T12:38:06;6.85;;;3.40;;
64986;SDS011;51532;52.108;9.360;2022-07-29T12:40:52;4.15;;;2.75;;
64986;SDS011;51532;52.108;9.360;2022-07-29T12:43:38;7.88;;;3.28;;
64986;SDS011;51532;52.108;9.360;2022-07-29T12:46:37;9.10;;;3.50;;
64986;SDS011;51532;52.108;9.360;2022-07-29T12:49:23;5.40;;;2.90;;
64986;SDS011;51532;52.108;9.360;2022-07-29T12:52:28;5.38;;;3.40;;
64986;SDS011;51532;52.108;9.360;2022-07-29T12:55:15;9.40;;;3.08;;
64986;SDS011;51532;52.108;9.360;2022-07-29T12:58:34;6.45;;;3.15;;
64986;SDS011;51532;52.108;9.360;2022-07-29T13:01:22;7.85;;;2.83;;
64986;SDS011;51532;52.108;9.360;2022-07-29T13:04:07;6.97;;;3.15;;
64986;SDS011;51532;52.108;9.360;2022-07-29T13:07:01;8.80;;;2.75;;
64986;SDS011;51532;52.108;9.360;2022-07-29T13:09:52;4.72;;;3.38;;
64986;SDS011;51532;52.108;9.360;2022-07-29T13:12:39;4.97;;;2.72;;
64986;SDS011;51532;52.108;9.360;2022-07-29T13:15:25;8.40;;;3.08;;
64986;SDS011;51532;52.108;9.360;2022-07-29T13:18:30;7.32;;;3.10;;
64986;SDS011;51532;52.108;9.360;2022-07-29T13:21:17;9.20;;;3.15;;
64986;SDS011;51532;52.108;9.360;2022-07-29T13:24:03;6.28;;;3.25;;
64986;SDS011;51532;52.108;9.360;2022-07-29T13:26:50;4.57;;;2.58;;
64986;SDS011;51532;52.108;9.360;2022-07-29T13:29:36;4.53;;;2.90;;
64986;SDS011;51532;52.108;9.360;2022-07-29T13:32:25;10.13;;;3.08;;
64986;SDS011;51532;52.108;9.360;2022-07-29T13:35:13;6.25;;;2.88;;
64986;SDS011;51532;52.108;9.360;2022-07-29T13:37:59;7.55;;;2.63;;
64986;SDS011;51532;52.108;9.360;2022-07-29T13:40:44;4.93;;;2.75;;
64986;SDS011;51532;52.108;9.360;2022-07-29T13:43:29;5.70;;;2.88;;
64986;SDS011;51532;52.108;9.360;2022-07-29T13:46:15;5.40;;;2.70;;
64986;SDS011;51532;52.108;9.360;2022-07-29T13:49:00;7.22;;;3.10;;
64986;SDS011;51532;52.108;9.360;2022-07-29T13:51:45;3.42;;;2.70;;
64986;SDS011;51532;52.108;9.360;2022-07-29T13:54:31;6.93;;;2.70;;
64986;SDS011;51532;52.108;9.360;2022-07-29T13:57:16;4.57;;;2.42;;
64986;SDS011;51532;52.108;9.360;2022-07-29T14:00:02;5.07;;;3.00;;
64986;SDS011;51532;52.108;9.360;2022-07-29T14:02:52;5.38;;;3.15;;
64986;SDS011;51532;52.108;9.360;2022-07-29T14:05:37;4.53;;;3.03;;
64986;SDS011;51532;52.108;9.360;2022-07-29T14:08:23;9.80;;;3.38;;
64986;SDS011;51532;52.108;9.360;2022-07-29T14:11:08;7.55;;;2.95;;
64986;SDS011;51532;52.108;9.360;2022-07-29T14:13:53;7.53;;;3.58;;
64986;SDS011;51532;52.108;9.360;2022-07-29T14:16:39;6.57;;;3.20;;
64986;SDS011;51532;52.108;9.360;2022-07-29T14:19:34;4.72;;;3.45;;
64986;SDS011;51532;52.108;9.360;2022-07-29T14:22:20;6.35;;;3.17;;
64986;SDS011;51532;52.108;9.360;2022-07-29T14:25:09;7.70;;;3.25;;
64986;SDS011;51532;52.108;9.360;2022-07-29T14:27:59;6.07;;;3.20;;
64986;SDS011;51532;52.108;9.360;2022-07-29T14:30:44;6.15;;;3.10;;
64986;SDS011;51532;52.108;9.360;2022-07-29T14:33:30;4.50;;;2.95;;
64986;SDS011;51532;52.108;9.360;2022-07-29T14:36:15;6.80;;;3.05;;
64986;SDS011;51532;52.108;9.360;2022-07-29T14:39:01;5.93;;;3.08;;
64986;SDS011;51532;52.108;9.360;2022-07-29T14:41:46;4.35;;;3.35;;
64986;SDS011;51532;52.108;9.360;2022-07-29T14:44:31;3.35;;;2.92;;
64986;SDS011;51532;52.108;9.360;2022-07-29T14:47:17;5.45;;;3.22;;
64986;SDS011;51532;52.108;9.360;2022-07-29T14:50:03;6.78;;;3.38;;
64986;SDS011;51532;52.108;9.360;2022-07-29T14:52:49;5.65;;;3.95;;
64986;SDS011;51532;52.108;9.360;2022-07-29T14:55:34;5.97;;;3.05;;
64986;SDS011;51532;52.108;9.360;2022-07-29T14:58:20;8.77;;;3.65;;
64986;SDS011;51532;52.108;9.360;2022-07-29T15:01:07;11.10;;;4.00;;
64986;SDS011;51532;52.108;9.360;2022-07-29T15:03:52;7.00;;;3.38;;
64986;SDS011;51532;52.108;9.360;2022-07-29T15:06:43;7.65;;;3.33;;
64986;SDS011;51532;52.108;9.360;2022-07-29T15:09:29;6.60;;;3.58;;
64986;SDS011;51532;52.108;9.360;2022-07-29T15:12:14;7.13;;;4.15;;
64986;SDS011;51532;52.108;9.360;2022-07-29T15:15:00;8.10;;;3.88;;
64986;SDS011;51532;52.108;9.360;2022-07-29T15:17:47;9.85;;;3.75;;
64986;SDS011;51532;52.108;9.360;2022-07-29T15:20:33;5.68;;;3.55;;
64986;SDS011;51532;52.108;9.360;2022-07-29T15:23:18;6.65;;;3.80;;
64986;SDS011;51532;52.108;9.360;2022-07-29T15:26:04;6.40;;;3.20;;
64986;SDS011;51532;52.108;9.360;2022-07-29T15:28:49;7.85;;;4.15;;
64986;SDS011;51532;52.108;9.360;2022-07-29T15:31:35;4.63;;;3.67;;
64986;SDS011;51532;52.108;9.360;2022-07-29T15:34:20;6.05;;;3.63;;
64986;SDS011;51532;52.108;9.360;2022-07-29T15:37:07;5.22;;;3.80;;
64986;SDS011;51532;52.108;9.360;2022-07-29T15:39:53;6.10;;;3.35;;
64986;SDS011;51532;52.108;9.360;2022-07-29T15:42:44;8.27;;;3.47;;
64986;SDS011;51532;52.108;9.360;2022-07-29T15:45:29;7.93;;;3.65;;
64986;SDS011;51532;52.108;9.360;2022-07-29T15:48:47;7.18;;;3.70;;
64986;SDS011;51532;52.108;9.360;2022-07-29T15:51:32;5.80;;;3.50;;
64986;SDS011;51532;52.108;9.360;2022-07-29T15:54:18;6.22;;;4.15;;
64986;SDS011;51532;52.108;9.360;2022-07-29T15:57:05;5.45;;;3.55;;
64986;SDS011;51532;52.108;9.360;2022-07-29T15:59:51;5.95;;;3.88;;
64986;SDS011;51532;52.108;9.360;2022-07-29T16:02:36;5.78;;;3.72;;
64986;SDS011;51532;52.108;9.360;2022-07-29T16:05:22;4.10;;;3.70;;
64986;SDS011;51532;52.108;9.360;2022-07-29T16:08:07;7.00;;;3.65;;
64986;SDS011;51532;52.108;9.360;2022-07-29T16:10:53;7.93;;;4.20;;
64986;SDS011;51532;52.108;9.360;2022-07-29T16:13:39;6.10;;;4.10;;
64986;SDS011;51532;52.108;9.360;2022-07-29T16:16:25;5.82;;;3.70;;
64986;SDS011;51532;52.108;9.360;2022-07-29T16:19:10;8.90;;;4.20;;
64986;SDS011;51532;52.108;9.360;2022-07-29T16:21:56;6.70;;;4.07;;
64986;SDS011;51532;52.108;9.360;2022-07-29T16:24:44;5.68;;;3.78;;
64986;SDS011;51532;52.108;9.360;2022-07-29T16:27:29;5.82;;;3.78;;
64986;SDS011;51532;52.108;9.360;2022-07-29T16:30:22;6.60;;;3.80;;
64986;SDS011;51532;52.108;9.360;2022-07-29T16:33:08;6.28;;;3.78;;
64986;SDS011;51532;52.108;9.360;2022-07-29T16:35:54;6.57;;;3.90;;
64986;SDS011;51532;52.108;9.360;2022-07-29T16:38:39;4.95;;;3.42;;
64986;SDS011;51532;52.108;9.360;2022-07-29T16:41:31;7.28;;;5.15;;
64986;SDS011;51532;52.108;9.360;2022-07-29T16:44:16;7.55;;;5.13;;
64986;SDS011;51532;52.108;9.360;2022-07-29T16:47:02;4.85;;;4.10;;
64986;SDS011;51532;52.108;9.360;2022-07-29T16:49:48;6.93;;;4.00;;
64986;SDS011;51532;52.108;9.360;2022-07-29T16:52:33;8.07;;;6.28;;
64986;SDS011;51532;52.108;9.360;2022-07-29T16:55:19;9.80;;;3.60;;
64986;SDS011;51532;52.108;9.360;2022-07-29T16:58:05;6.07;;;3.60;;
64986;SDS011;51532;52.108;9.360;2022-07-29T17:00:50;6.82;;;3.67;;
64986;SDS011;51532;52.108;9.360;2022-07-29T17:03:36;6.50;;;3.38;;
64986;SDS011;51532;52.108;9.360;2022-07-29T17:06:44;8.05;;;4.10;;
64986;SDS011;51532;52.108;9.360;2022-07-29T17:09:30;7.93;;;3.50;;
64986;SDS011;51532;52.108;9.360;2022-07-29T17:12:16;4.50;;;3.45;;
64986;SDS011;51532;52.108;9.360;2022-07-29T17:15:02;6.15;;;3.63;;
64986;SDS011;51532;52.108;9.360;2022-07-29T17:17:49;7.10;;;3.35;;
64986;SDS011;51532;52.108;9.360;2022-07-29T17:20:40;4.70;;;3.75;;
64986;SDS011;51532;52.108;9.360;2022-07-29T17:23:26;7.13;;;3.97;;
64986;SDS011;51532;52.108;9.360;2022-07-29T17:26:11;6.45;;;3.38;;
64986;SDS011;51532;52.108;9.360;2022-07-29T17:28:57;5.00;;;3.45;;